Gaia — PC4584 — position and weather

sailwx.info

Track history (hours):
 
Tides and Currents Weather Stations Pressure Air Temp Water Temp Dewpoint Dewpoint Depression Visibility Wind Speed Wind Dir Waves Ship Positions

Gaia

Last reported at 2017-Oct-14 13:36 UTC. Time now 2017-Nov-19 03:02 UTC.
Position N 52°53' E 005°21'.
Warning: this ship's position is 35 days out of date.

Length 12 m.

Type: Sailing vessel. MMSI: 244615031.

Date/timePositionNaut miles runAvg speedWind from/ knotsBaromVisibWave heightAir tempDewpointWater temp
2017-Oct-14 13:36N 52°53' E 005°21'0 0.0
2017-Oct-14 12:48N 52°53' E 005°21'0 0.0
2017-Oct-14 11:06N 52°53' E 005°21'0 0.0
2017-Oct-14 10:09N 52°53' E 005°21'0 0.0
2017-Oct-14 06:03N 52°53' E 005°21'0 0.0
2017-Oct-14 05:33N 52°53' E 005°21'0 0.0
2017-Oct-14 02:51N 52°53' E 005°21'0 0.0
2017-Oct-14 02:09N 52°53' E 005°21'0 0.0
2017-Oct-13 23:47N 52°53' E 005°21'0 0.0
2017-Oct-13 23:26N 52°53' E 005°21'0 0.0
2017-Oct-13 22:02N 52°53' E 005°21'0 0.0
2017-Oct-13 21:14N 52°53' E 005°21'0 0.0
2017-Oct-13 20:50N 52°53' E 005°21'0 0.0
2017-Oct-13 19:50N 52°53' E 005°21'0 0.0
2017-Oct-13 19:20N 52°53' E 005°21'0 0.0
2017-Oct-13 18:50N 52°53' E 005°21'0 0.0
2017-Oct-13 16:44N 52°53' E 005°21'0 0.0
2017-Oct-13 16:20N 52°53' E 005°21'1 1.6
2017-Oct-13 16:00N 52°53' E 005°21'3 6.1
2017-Oct-13 15:30N 52°50' E 005°20'3 5.1
2017-Oct-13 14:53N 52°49' E 005°26'  
2017-Oct-08 11:13N 52°47' E 005°33'1 7.0
2017-Oct-08 11:00N 52°46' E 005°31'3 6.8
2017-Oct-08 10:30N 52°45' E 005°26'3 6.6
2017-Oct-08 10:00N 52°43' E 005°21'3 5.2
2017-Oct-08 09:30N 52°42' E 005°17'0 0.1
2017-Oct-08 09:00N 52°42' E 005°17'0 0.0
2017-Oct-08 08:30N 52°42' E 005°17'0 0.0
2017-Oct-08 08:00N 52°42' E 005°17'0 0.0
2017-Oct-08 07:30N 52°42' E 005°17'0 0.0
2017-Oct-08 07:00N 52°42' E 005°17'0 0.0
2017-Oct-08 06:30N 52°42' E 005°17'0 0.0
2017-Oct-08 06:00N 52°42' E 005°17'0 0.0
2017-Oct-08 05:30N 52°42' E 005°17'0 0.0
2017-Oct-08 05:00N 52°42' E 005°17'0 0.0
2017-Oct-08 04:30N 52°42' E 005°17'0 0.0
2017-Oct-08 03:58N 52°42' E 005°17'0 0.0
2017-Oct-08 03:28N 52°42' E 005°17'0 0.0
2017-Oct-08 02:58N 52°42' E 005°17'0 0.0
2017-Oct-08 02:28N 52°42' E 005°17'0 0.0
2017-Oct-08 01:58N 52°42' E 005°17'0 0.0
2017-Oct-08 01:28N 52°42' E 005°17'0 0.0
2017-Oct-08 00:58N 52°42' E 005°17'0 0.0
2017-Oct-08 00:28N 52°42' E 005°17'0 0.0
2017-Oct-07 23:58N 52°42' E 005°17'0 0.0
2017-Oct-07 23:28N 52°42' E 005°17'0 0.0
2017-Oct-07 22:58N 52°42' E 005°17'0 0.0
2017-Oct-07 22:28N 52°42' E 005°17'0 0.0
2017-Oct-07 21:58N 52°42' E 005°17'0 0.0
2017-Oct-07 21:28N 52°42' E 005°17'0 0.0
2017-Oct-07 20:58N 52°42' E 005°17'0 0.0
2017-Oct-07 20:28N 52°42' E 005°17'0 0.0
2017-Oct-07 19:58N 52°42' E 005°17'0 0.0
2017-Oct-07 19:28N 52°42' E 005°17'0 0.0
2017-Oct-07 18:58N 52°42' E 005°17'0 0.0
2017-Oct-07 18:28N 52°42' E 005°17'0 0.0
2017-Oct-07 17:58N 52°42' E 005°17'0 0.0
2017-Oct-07 17:28N 52°42' E 005°17'0 0.0
2017-Oct-07 16:58N 52°42' E 005°17'0 0.0
2017-Oct-07 16:28N 52°42' E 005°17'0 0.0
2017-Oct-07 15:58N 52°42' E 005°17'0 0.0
2017-Oct-07 15:28N 52°42' E 005°17'0 0.0
2017-Oct-07 14:58N 52°42' E 005°17'0 0.0
2017-Oct-07 14:28N 52°42' E 005°17'0 0.0
2017-Oct-07 13:58N 52°42' E 005°17'0 0.0
2017-Oct-07 13:28N 52°42' E 005°17'0 0.0
2017-Oct-07 12:58N 52°42' E 005°17'0 0.0
2017-Oct-07 12:28N 52°42' E 005°17'0 0.0
2017-Oct-07 11:58N 52°42' E 005°17'0 0.0
2017-Oct-07 11:28N 52°42' E 005°17'0 0.0
2017-Oct-07 10:58N 52°42' E 005°17'0 0.0
2017-Oct-07 10:28N 52°42' E 005°17'0 0.0
2017-Oct-07 09:55N 52°42' E 005°17'0 0.0
2017-Oct-07 09:28N 52°42' E 005°17'0 0.0
2017-Oct-07 08:58N 52°42' E 005°17'0 0.0
2017-Oct-07 08:28N 52°42' E 005°17'0 0.0
2017-Oct-07 07:58N 52°42' E 005°17'0 0.0
2017-Oct-07 07:28N 52°42' E 005°17'0 0.0
2017-Oct-07 06:58N 52°42' E 005°17'0 0.0
2017-Oct-07 06:28N 52°42' E 005°17'0 0.0
2017-Oct-07 05:58N 52°42' E 005°17'0 0.0
2017-Oct-07 05:28N 52°42' E 005°17'0 0.0
2017-Oct-07 04:58N 52°42' E 005°17'0 0.0
2017-Oct-07 04:30N 52°42' E 005°17'0 0.0
2017-Oct-07 03:58N 52°42' E 005°17'0 0.0
2017-Oct-07 03:28N 52°42' E 005°17'0 0.0
2017-Oct-07 02:58N 52°42' E 005°17'0 0.0
2017-Oct-07 02:28N 52°42' E 005°17'0 0.0
2017-Oct-07 01:58N 52°42' E 005°17'0 0.0
2017-Oct-07 01:28N 52°42' E 005°17'0 0.0
2017-Oct-07 00:58N 52°42' E 005°17'0 0.0
2017-Oct-07 00:28N 52°42' E 005°17'0 0.0
2017-Oct-06 23:58N 52°42' E 005°17'0 0.0
2017-Oct-06 23:28N 52°42' E 005°17'0 0.0
2017-Oct-06 22:58N 52°42' E 005°17'0 0.0
2017-Oct-06 22:25N 52°42' E 005°17'0 0.0
2017-Oct-06 21:58N 52°42' E 005°17'0 0.0
2017-Oct-06 21:29N 52°42' E 005°17'0 0.0
2017-Oct-06 20:59N 52°42' E 005°17'0 0.0
2017-Oct-06 20:29N 52°42' E 005°17'0 0.0
2017-Oct-06 19:59N 52°42' E 005°17'0 0.0
2017-Oct-06 19:29N 52°42' E 005°17'0 0.0
2017-Oct-06 18:58N 52°42' E 005°17'0 0.0
2017-Oct-06 18:28N 52°42' E 005°17'0 0.0
2017-Oct-06 17:59N 52°42' E 005°17'0 0.0
2017-Oct-06 17:29N 52°42' E 005°17'0 0.2
2017-Oct-06 17:00N 52°42' E 005°17'3 5.6
2017-Oct-06 16:30N 52°44' E 005°21'4 7.3
2017-Oct-06 15:59N 52°46' E 005°27'4 7.3
2017-Oct-06 15:23N 52°48' E 005°33'  
Track history (hours):
 
Tides and Currents Weather Stations Pressure Air Temp Water Temp Dewpoint Dewpoint Depression Visibility Wind Speed Wind Dir Waves Ship Positions

Gaia

Last reported at 2017-Oct-14 13:36 UTC. Time now 2017-Nov-19 03:02 UTC.
Position N 52°53' E 005°21'.
Warning: this ship's position is 35 days out of date.

Length 12 m.

Type: Sailing vessel. MMSI: 244615031.

Date/timePositionNaut miles runAvg speedWind from/ knotsBaromVisibWave heightAir tempDewpointWater temp
2017-Oct-14 13:36N 52°53' E 005°21'0 0.0
2017-Oct-14 12:48N 52°53' E 005°21'0 0.0
2017-Oct-14 11:06N 52°53' E 005°21'0 0.0
2017-Oct-14 10:09N 52°53' E 005°21'0 0.0
2017-Oct-14 06:03N 52°53' E 005°21'0 0.0
2017-Oct-14 05:33N 52°53' E 005°21'0 0.0
2017-Oct-14 02:51N 52°53' E 005°21'0 0.0
2017-Oct-14 02:09N 52°53' E 005°21'0 0.0
2017-Oct-13 23:47N 52°53' E 005°21'0 0.0
2017-Oct-13 23:26N 52°53' E 005°21'0 0.0
2017-Oct-13 22:02N 52°53' E 005°21'0 0.0
2017-Oct-13 21:14N 52°53' E 005°21'0 0.0
2017-Oct-13 20:50N 52°53' E 005°21'0 0.0
2017-Oct-13 19:50N 52°53' E 005°21'0 0.0
2017-Oct-13 19:20N 52°53' E 005°21'0 0.0
2017-Oct-13 18:50N 52°53' E 005°21'0 0.0
2017-Oct-13 16:44N 52°53' E 005°21'0 0.0
2017-Oct-13 16:20N 52°53' E 005°21'1 1.6
2017-Oct-13 16:00N 52°53' E 005°21'3 6.1
2017-Oct-13 15:30N 52°50' E 005°20'3 5.1
2017-Oct-13 14:53N 52°49' E 005°26'  
2017-Oct-08 11:13N 52°47' E 005°33'1 7.0
2017-Oct-08 11:00N 52°46' E 005°31'3 6.8
2017-Oct-08 10:30N 52°45' E 005°26'3 6.6
2017-Oct-08 10:00N 52°43' E 005°21'3 5.2
2017-Oct-08 09:30N 52°42' E 005°17'0 0.1
2017-Oct-08 09:00N 52°42' E 005°17'0 0.0
2017-Oct-08 08:30N 52°42' E 005°17'0 0.0
2017-Oct-08 08:00N 52°42' E 005°17'0 0.0
2017-Oct-08 07:30N 52°42' E 005°17'0 0.0
2017-Oct-08 07:00N 52°42' E 005°17'0 0.0
2017-Oct-08 06:30N 52°42' E 005°17'0 0.0
2017-Oct-08 06:00N 52°42' E 005°17'0 0.0
2017-Oct-08 05:30N 52°42' E 005°17'0 0.0
2017-Oct-08 05:00N 52°42' E 005°17'0 0.0
2017-Oct-08 04:30N 52°42' E 005°17'0 0.0
2017-Oct-08 03:58N 52°42' E 005°17'0 0.0
2017-Oct-08 03:28N 52°42' E 005°17'0 0.0
2017-Oct-08 02:58N 52°42' E 005°17'0 0.0
2017-Oct-08 02:28N 52°42' E 005°17'0 0.0
2017-Oct-08 01:58N 52°42' E 005°17'0 0.0
2017-Oct-08 01:28N 52°42' E 005°17'0 0.0
2017-Oct-08 00:58N 52°42' E 005°17'0 0.0
2017-Oct-08 00:28N 52°42' E 005°17'0 0.0
2017-Oct-07 23:58N 52°42' E 005°17'0 0.0
2017-Oct-07 23:28N 52°42' E 005°17'0 0.0
2017-Oct-07 22:58N 52°42' E 005°17'0 0.0
2017-Oct-07 22:28N 52°42' E 005°17'0 0.0
2017-Oct-07 21:58N 52°42' E 005°17'0 0.0
2017-Oct-07 21:28N 52°42' E 005°17'0 0.0
2017-Oct-07 20:58N 52°42' E 005°17'0 0.0
2017-Oct-07 20:28N 52°42' E 005°17'0 0.0
2017-Oct-07 19:58N 52°42' E 005°17'0 0.0
2017-Oct-07 19:28N 52°42' E 005°17'0 0.0
2017-Oct-07 18:58N 52°42' E 005°17'0 0.0
2017-Oct-07 18:28N 52°42' E 005°17'0 0.0
2017-Oct-07 17:58N 52°42' E 005°17'0 0.0
2017-Oct-07 17:28N 52°42' E 005°17'0 0.0
2017-Oct-07 16:58N 52°42' E 005°17'0 0.0
2017-Oct-07 16:28N 52°42' E 005°17'0 0.0
2017-Oct-07 15:58N 52°42' E 005°17'0 0.0
2017-Oct-07 15:28N 52°42' E 005°17'0 0.0
2017-Oct-07 14:58N 52°42' E 005°17'0 0.0
2017-Oct-07 14:28N 52°42' E 005°17'0 0.0
2017-Oct-07 13:58N 52°42' E 005°17'0 0.0
2017-Oct-07 13:28N 52°42' E 005°17'0 0.0
2017-Oct-07 12:58N 52°42' E 005°17'0 0.0
2017-Oct-07 12:28N 52°42' E 005°17'0 0.0
2017-Oct-07 11:58N 52°42' E 005°17'0 0.0
2017-Oct-07 11:28N 52°42' E 005°17'0 0.0
2017-Oct-07 10:58N 52°42' E 005°17'0 0.0
2017-Oct-07 10:28N 52°42' E 005°17'0 0.0
2017-Oct-07 09:55N 52°42' E 005°17'0 0.0
2017-Oct-07 09:28N 52°42' E 005°17'0 0.0
2017-Oct-07 08:58N 52°42' E 005°17'0 0.0
2017-Oct-07 08:28N 52°42' E 005°17'0 0.0
2017-Oct-07 07:58N 52°42' E 005°17'0 0.0
2017-Oct-07 07:28N 52°42' E 005°17'0 0.0
2017-Oct-07 06:58N 52°42' E 005°17'0 0.0
2017-Oct-07 06:28N 52°42' E 005°17'0 0.0
2017-Oct-07 05:58N 52°42' E 005°17'0 0.0
2017-Oct-07 05:28N 52°42' E 005°17'0 0.0
2017-Oct-07 04:58N 52°42' E 005°17'0 0.0
2017-Oct-07 04:30N 52°42' E 005°17'0 0.0
2017-Oct-07 03:58N 52°42' E 005°17'0 0.0
2017-Oct-07 03:28N 52°42' E 005°17'0 0.0
2017-Oct-07 02:58N 52°42' E 005°17'0 0.0
2017-Oct-07 02:28N 52°42' E 005°17'0 0.0
2017-Oct-07 01:58N 52°42' E 005°17'0 0.0
2017-Oct-07 01:28N 52°42' E 005°17'0 0.0
2017-Oct-07 00:58N 52°42' E 005°17'0 0.0
2017-Oct-07 00:28N 52°42' E 005°17'0 0.0
2017-Oct-06 23:58N 52°42' E 005°17'0 0.0
2017-Oct-06 23:28N 52°42' E 005°17'0 0.0
2017-Oct-06 22:58N 52°42' E 005°17'0 0.0
2017-Oct-06 22:25N 52°42' E 005°17'0 0.0
2017-Oct-06 21:58N 52°42' E 005°17'0 0.0
2017-Oct-06 21:29N 52°42' E 005°17'0 0.0
2017-Oct-06 20:59N 52°42' E 005°17'0 0.0
2017-Oct-06 20:29N 52°42' E 005°17'0 0.0
2017-Oct-06 19:59N 52°42' E 005°17'0 0.0
2017-Oct-06 19:29N 52°42' E 005°17'0 0.0
2017-Oct-06 18:58N 52°42' E 005°17'0 0.0
2017-Oct-06 18:28N 52°42' E 005°17'0 0.0
2017-Oct-06 17:59N 52°42' E 005°17'0 0.0
2017-Oct-06 17:29N 52°42' E 005°17'0 0.2
2017-Oct-06 17:00N 52°42' E 005°17'3 5.6
2017-Oct-06 16:30N 52°44' E 005°21'4 7.3
2017-Oct-06 15:59N 52°46' E 005°27'4 7.3
2017-Oct-06 15:23N 52°48' E 005°33'  

Dump ship's entire track history